Flight Track Log - Related Links

Times and Time Zones

All times are in EDT time to prevent confusion due to time zone crossing. See the AWE66 flight status page for this flight to view local times or setup timezone preferences in your user account.

Time Position Orientation Groundspeed Altitude Reporting Facility
EDT Latitude Longitude Course Direction KTS MPH feet Rate Location/Type
Thu 02:09:45 AM 32.7564 -117.2506 16° North 202 232 1,900  Level Los Angeles Center
Thu 02:10:46 AM 32.7731 -117.3261 285° West 239 275 3,900 2,182 Climbing Los Angeles Center
Thu 02:11:46 AM 32.7086 -117.3353 187° South 249 287 6,300 2,231 Climbing Los Angeles Center
Thu 02:12:47 AM 32.6756 -117.2564 116° Southeast 279 321 8,400 1,967 Climbing Los Angeles Center
Thu 02:13:48 AM 32.6550 -117.1631 105° East 293 337 10,300 1,377 Climbing Los Angeles Center
Thu 02:14:00 AM 32.7679 -116.7107 16° North  Level FlightAware Approximate
Thu 02:14:49 AM 32.6297 -117.0578 106° East 331 381 11,200  Level Los Angeles Center
Thu 02:15:50 AM 32.6136 -116.9364 99° East 376 433 12,300 1,426 Climbing Los Angeles Center
Thu 02:16:51 AM 32.6292 -116.8097 82° East 393 452 14,100 1,672 Climbing Los Angeles Center
Thu 02:17:52 AM 32.7206 -116.7383 33° Northeast 405 466 15,700 1,525 Climbing Los Angeles Center
Thu 02:18:53 AM 32.8311 -116.6992 17° North 411 473 17,200 1,339 Climbing Los Angeles Center
Thu 02:19:53 AM 32.9456 -116.6572 17° North 420 483 18,400 1,140 Climbing Los Angeles Center
Thu 02:20:54 AM 33.0636 -116.6136 17° North 432 497 19,500 1,082 Climbing Los Angeles Center
Thu 02:21:55 AM 33.1797 -116.5533 23° Northeast 451 519 20,600 1,082 Climbing Los Angeles Center
Thu 02:22:56 AM 33.2825 -116.4611 37° Northeast 456 525 21,700 1,033 Climbing Los Angeles Center
Thu 02:23:57 AM 33.3881 -116.3700 36° Northeast 464 534 22,700 1,082 Climbing Los Angeles Center
Thu 02:24:58 AM 33.5142 -116.2586 36° Northeast 468 539 23,900 1,082 Climbing Los Angeles Center
Thu 02:25:59 AM 33.6189 -116.1631 37° Northeast 469 540 24,900 934 Climbing Los Angeles Center
Thu 02:27:00 AM 33.6747 -116.0175 65° Northeast 471 542 25,800 836 Climbing Los Angeles Center
Thu 02:28:01 AM 33.7272 -115.8722 66° East 474 545 26,600 793 Climbing Los Angeles Center
Thu 02:29:01 AM 33.7800 -115.7236 67° East 480 552 27,400 793 Climbing Los Angeles Center
Thu 02:30:02 AM 33.8344 -115.5753 66° East 483 556 28,200 787 Climbing Los Angeles Center
Thu 02:31:03 AM 33.8878 -115.4258 67° East 486 559 29,000 639 Climbing Los Angeles Center
Thu 02:32:04 AM 33.9300 -115.3050 67° East 488 562 29,500 689 Climbing Los Angeles Center
Thu 02:33:05 AM 33.9939 -115.1233 67° East 491 565 30,400 885 Climbing Los Angeles Center
Thu 02:34:06 AM 34.0481 -114.9725 67° East 491 565 31,300 787 Climbing Los Angeles Center
Thu 02:35:07 AM 34.1006 -114.8200 67° East 494 568 32,000 694 Climbing Los Angeles Center
Thu 02:36:07 AM 34.1525 -114.6706 67° East 486 559 32,700 694 Climbing Los Angeles Center
Thu 02:37:08 AM 34.2056 -114.5192 67° East 490 564 33,400 689 Climbing Los Angeles Center
Thu 02:38:09 AM 34.2572 -114.3692 67° East 488 562 34,100 679 Climbing Los Angeles Center
Thu 02:38:54 AM 34.2953 -114.2561 68° East 488 562 34,600 514 Climbing Albuquerque Center
Thu 02:39:54 AM 34.3481 -114.1019 67° East 491 565 35,000 198 Climbing Albuquerque Center
Thu 02:40:55 AM 34.4000 -113.9519 67° East 487 560 35,000  Level Albuquerque Center
Thu 02:41:55 AM 34.4506 -113.8011 68° East 485 558 35,000  Level Albuquerque Center
Thu 02:42:55 AM 34.5025 -113.6469 68° East 489 563 35,000  Level Albuquerque Center
Thu 02:43:56 AM 34.5619 -113.4703 68° East 489 563 35,000  Level Albuquerque Center
Thu 02:44:56 AM 34.6125 -113.3203 68° East 487 560 35,000  Level Albuquerque Center
Thu 02:45:56 AM 34.6608 -113.1708 68° East 483 556 35,000  Level Albuquerque Center
Thu 02:46:56 AM 34.7097 -113.0228 68° East 481 554 35,000  Level Albuquerque Center
Thu 02:47:57 AM 34.7586 -112.8736 68° East 481 554 35,000  Level Albuquerque Center
Thu 02:48:57 AM 34.8075 -112.7219 69° East 484 557 35,000  Level Albuquerque Center
Thu 02:49:57 AM 34.8572 -112.5700 68° East 488 562 35,000  Level Albuquerque Center
Thu 02:50:57 AM 34.9058 -112.4181 69° East 489 563 35,000  Level Albuquerque Center
Thu 02:51:58 AM 34.9547 -112.2667 68° East 488 562 35,000  Level Albuquerque Center
Thu 02:52:58 AM 35.0022 -112.1131 69° East 488 562 35,000  Level Albuquerque Center
Thu 02:53:58 AM 35.0511 -111.9614 68° East 487 560 35,000  Level Albuquerque Center
Thu 02:54:58 AM 35.0986 -111.8108 69° East 483 556 35,000  Level Albuquerque Center
Thu 02:55:59 AM 35.1519 -111.6417 69° East 482 555 35,000  Level Albuquerque Center
Thu 02:56:59 AM 35.2006 -111.4878 69° East 484 557 35,000  Level Albuquerque Center
Thu 02:57:59 AM 35.2478 -111.3333 69° East 484 557 35,000  Level Albuquerque Center
Thu 02:59:00 AM 35.2958 -111.1781 69° East 486 559 35,000  Level Albuquerque Center
Thu 03:00:00 AM 35.3453 -111.0239 68° East 484 557 35,000  Level Albuquerque Center
Thu 03:01:00 AM 35.3892 -110.8767 70° East 481 554 35,000  Level Albuquerque Center
Thu 03:02:00 AM 35.4419 -110.7061 69° East 480 552 35,000  Level Albuquerque Center
Thu 03:03:01 AM 35.4850 -110.5581 70° East 481 554 35,000  Level Albuquerque Center
Thu 03:04:01 AM 35.5303 -110.4108 69° East 482 555 35,000  Level Albuquerque Center
Thu 03:05:01 AM 35.5758 -110.2622 69° East 485 558 35,000  Level Albuquerque Center
Thu 03:06:02 AM 35.6264 -110.0864 70° East 486 559 35,000  Level Albuquerque Center
Thu 03:07:02 AM 35.6719 -109.9364 69° East 489 563 35,000  Level Albuquerque Center
Thu 03:08:03 AM 35.7161 -109.7864 70° East 488 562 35,000  Level Albuquerque Center
Thu 03:09:02 AM 35.7678 -109.6111 70° East 488 562 35,000  Level Albuquerque Center
Thu 03:10:03 AM 35.8119 -109.4600 70° East 489 563 35,000  Level Albuquerque Center
Thu 03:11:03 AM 35.8572 -109.3092 70° East 491 565 35,000  Level Albuquerque Center
Thu 03:12:03 AM 35.9050 -109.1383 71° East 490 564 35,000  Level Albuquerque Center
Thu 03:13:04 AM 35.9531 -108.9789 70° East 494 568 35,000  Level Albuquerque Center
Thu 03:14:04 AM 35.9967 -108.8208 71° East 488 562 35,000  Level Albuquerque Center
Thu 03:15:04 AM 36.0425 -108.6611 70° East 493 567 35,000  Level Albuquerque Center
Thu 03:16:05 AM 36.0881 -108.5017 70° East 491 565 35,000  Level Albuquerque Center
Thu 03:17:05 AM 36.1286 -108.3583 71° East 488 562 35,000  Level Albuquerque Center
Thu 03:18:05 AM 36.1781 -108.1817 71° East 487 560 35,000  Level Albuquerque Center
Thu 03:18:39 AM 36.1983 -108.1050 72° East 487 560 35,000  Level Denver Center
Thu 03:19:40 AM 36.2475 -107.9278 71° East 487 560 35,000  Level Denver Center
Thu 03:20:40 AM 36.2817 -107.8008 72° East 487 560 35,000  Level Denver Center
Thu 03:21:41 AM 36.3300 -107.6242 71° East 485 558 35,000  Level Denver Center
Thu 03:22:42 AM 36.3717 -107.4722 71° East 486 559 35,000  Level Denver Center
Thu 03:23:42 AM 36.4203 -107.2931 71° East 489 563 35,000 50 Level Denver Center
Thu 03:24:43 AM 36.4619 -107.1381 71° East 493 567 35,100  Climbing Denver Center
Thu 03:25:43 AM 36.5039 -106.9844 71° East 492 566 35,000 -50 Descending Denver Center
Thu 03:26:44 AM 36.5497 -106.8053 72° East 488 562 35,000  Level Denver Center
Thu 03:27:44 AM 36.5914 -106.6528 71° East 487 560 35,000  Level Denver Center
Thu 03:28:45 AM 36.6336 -106.4864 72° East 489 563 35,000  Level Denver Center
Thu 03:29:45 AM 36.6772 -106.3250 71° East 492 566 35,000  Level Denver Center
Thu 03:30:46 AM 36.7183 -106.1617 73° East 494 568 35,000  Level Denver Center
Thu 03:31:46 AM 36.7567 -106.0100 72° East 493 567 35,000  Level Denver Center
Thu 03:32:47 AM 36.8050 -105.8292 71° East 493 567 35,000  Level Denver Center
Thu 03:33:48 AM 36.8433 -105.6719 73° East 494 568 35,000  Level Denver Center
Thu 03:34:48 AM 36.8819 -105.5158 73° East 493 567 35,000  Level Denver Center
Thu 03:35:49 AM 36.9278 -105.3342 72° East 492 566 35,000  Level Denver Center
Thu 03:36:49 AM 36.9667 -105.1822 72° East 494 568 35,000  Level Denver Center
Thu 03:37:50 AM 37.0069 -105.0169 73° East 497 572 35,000  Level Denver Center
Thu 03:38:50 AM 37.0494 -104.8342 74° East 497 572 35,000  Level Denver Center
Thu 03:39:51 AM 37.0886 -104.6767 73° East 496 571 35,000  Level Denver Center
Thu 03:40:51 AM 37.1256 -104.5175 74° East 500 575 35,000  Level Denver Center
Thu 03:41:52 AM 37.1703 -104.3319 73° East 501 577 35,000  Level Denver Center
Thu 03:42:52 AM 37.2072 -104.1717 74° East 502 578 35,000  Level Denver Center
Thu 03:43:53 AM 37.2444 -104.0119 74° East 502 578 35,000  Level Denver Center
Thu 03:44:53 AM 37.2889 -103.8264 73° East 502 578 35,000  Level Denver Center
Thu 03:45:54 AM 37.3258 -103.6675 74° East 502 578 35,000  Level Denver Center
Thu 03:46:54 AM 37.3631 -103.5075 74° East 501 577 35,000  Level Denver Center
Thu 03:47:55 AM 37.4064 -103.3181 74° East 507 583 35,000  Level Denver Center
Thu 03:48:55 AM 37.4436 -103.1567 74° East 505 581 35,000  Level Denver Center
Thu 03:49:56 AM 37.4803 -102.9956 74° East 503 579 35,000  Level Denver Center
Thu 03:50:56 AM 37.5228 -102.8058 74° East 505 581 35,000  Level Denver Center
Thu 03:51:57 AM 37.5594 -102.6433 74° East 506 582 35,000  Level Denver Center
Thu 03:52:57 AM 37.5981 -102.4678 74° East 506 582 35,000  Level Denver Center
Thu 03:53:58 AM 37.6342 -102.3039 74° East 506 582 35,000  Level Denver Center
Thu 03:54:58 AM 37.6758 -102.1131 75° East 505 581 35,000  Level Denver Center
Thu 03:55:59 AM 37.7108 -101.9497 75° East 504 580 35,000  Level Denver Center
Thu 03:57:11 AM 37.7464 -101.7850 75° East 507 583 35,000  Level Denver Center
Thu 03:58:12 AM 37.7931 -101.5650 75° East 507 583 35,000  Level Denver Center
Thu 03:59:12 AM 37.8286 -101.3992 75° East 508 585 35,000  Level Denver Center
Thu 04:00:13 AM 37.8642 -101.2319 75° East 510 587 35,000  Level Denver Center
Thu 04:01:14 AM 37.8994 -101.0631 75° East 512 589 35,000  Level Denver Center
Thu 04:02:14 AM 37.9397 -100.8644 76° East 514 592 35,000  Level Denver Center
Thu 04:03:14 AM 37.9750 -100.6964 75° East 511 588 35,000  Level Denver Center
Thu 04:04:15 AM 38.0078 -100.5308 76° East 506 582 35,000  Level Denver Center
Thu 04:05:26 AM 38.0456 -100.3375 76° East 502 578 35,000  Level Kansas City Center
Thu 04:06:26 AM 38.0842 -100.1439 76° East 504 580 35,000  Level Kansas City Center
Thu 04:07:26 AM 38.1167 -99.9775 76° East 506 582 35,000  Level Kansas City Center
Thu 04:08:26 AM 38.1500 -99.8108 76° East 508 585 35,000  Level Kansas City Center
Thu 04:09:27 AM 38.1867 -99.6158 76° East 508 585 35,000  Level Kansas City Center
Thu 04:10:27 AM 38.2175 -99.4556 76° East 506 582 35,000  Level Kansas City Center
Thu 04:11:28 AM 38.2525 -99.2800 76° East 508 585 35,000  Level Kansas City Center
Thu 04:12:28 AM 38.2844 -99.1039 77° East 511 588 35,000  Level Kansas City Center
Thu 04:13:30 AM 38.3175 -98.9308 76° East 506 582 35,000  Level Kansas City Center
Thu 04:14:28 AM 38.3511 -98.7544 76° East 509 586 35,000  Level Kansas City Center
Thu 04:15:32 AM 38.3825 -98.5808 77° East 504 580 35,000  Level Kansas City Center
Thu 04:16:32 AM 38.4158 -98.4039 76° East 508 585 35,000  Level Kansas City Center
Thu 04:17:33 AM 38.4478 -98.2289 77° East 505 581 35,000  Level Kansas City Center
Thu 04:18:31 AM 38.4792 -98.0511 77° East 508 585 35,000  Level Kansas City Center
Thu 04:19:33 AM 38.5111 -97.8736 77° East 508 585 35,000  Level Kansas City Center
Thu 04:20:35 AM 38.5419 -97.6964 77° East 509 586 35,000  Level Kansas City Center
Thu 04:21:36 AM 38.5725 -97.5178 78° East 512 589 35,000  Level Kansas City Center
Thu 04:22:34 AM 38.6033 -97.3406 77° East 510 587 35,000  Level Kansas City Center
Thu 04:23:37 AM 38.6339 -97.1639 77° East 508 585 35,000  Level Kansas City Center
Thu 04:24:36 AM 38.6631 -96.9875 78° East 507 583 35,000  Level Kansas City Center
Thu 04:25:38 AM 38.6931 -96.8050 78° East 510 587 35,000  Level Kansas City Center
Thu 04:26:36 AM 38.7258 -96.6039 78° East 518 596 35,000  Level Kansas City Center
Thu 04:27:38 AM 38.7564 -96.4317 77° East 518 596 35,000  Level Kansas City Center
Thu 04:28:38 AM 38.7833 -96.2564 79° East 524 603 35,000  Level Kansas City Center
Thu 04:29:38 AM 38.8150 -96.0525 79° East 524 603 35,000  Level Kansas City Center
Thu 04:30:39 AM 38.8431 -95.8786 78° East 522 601 35,000  Level Kansas City Center
Thu 04:31:42 AM 38.8700 -95.7039 79° East 523 602 35,000  Level Kansas City Center
Thu 04:32:41 AM 38.9008 -95.5033 79° East 518 596 35,000  Level Kansas City Center
Thu 04:33:42 AM 38.9278 -95.3311 79° East 519 597 35,000  Level Kansas City Center
Thu 04:34:42 AM 38.9528 -95.1589 79° East 520 598 35,000  Level Kansas City Center
Thu 04:35:45 AM 38.9833 -94.9583 79° East 518 596 35,000  Level Kansas City Center
Thu 04:36:44 AM 39.0094 -94.7861 79° East 518 596 35,000  Level Kansas City Center
Thu 04:37:44 AM 39.0353 -94.6125 79° East 519 597 35,000  Level Kansas City Center
Thu 04:38:47 AM 39.0650 -94.4106 79° East 516 594 35,000  Level Kansas City Center
Thu 04:39:47 AM 39.0897 -94.2394 79° East 510 587 35,000  Level Kansas City Center
Thu 04:40:48 AM 39.1142 -94.0667 80° East 512 589 35,000  Level Kansas City Center
Thu 04:41:47 AM 39.1428 -93.8678 79° East 508 585 35,000  Level Kansas City Center
Thu 04:42:47 AM 39.1661 -93.6961 80° East 509 586 35,000  Level Kansas City Center
Thu 04:43:50 AM 39.1892 -93.5247 80° East 507 583 35,000  Level Kansas City Center
Thu 04:44:51 AM 39.2192 -93.3206 79° East 514 592 35,000  Level Kansas City Center
Thu 04:45:50 AM 39.2419 -93.1400 81° East 517 595 35,000  Level Kansas City Center
Thu 04:46:52 AM 39.2658 -92.9597 80° East 516 594 35,000  Level Kansas City Center
Thu 04:47:51 AM 39.2894 -92.7817 80° East 514 592 35,000  Level Kansas City Center
Thu 04:48:51 AM 39.3122 -92.6025 81° East 512 589 35,000  Level Kansas City Center
Thu 04:49:51 AM 39.3361 -92.4214 80° East 514 592 35,000  Level Kansas City Center
Thu 04:50:53 AM 39.3578 -92.2414 81° East 515 593 35,000  Level Kansas City Center
Thu 04:51:55 AM 39.3797 -92.0631 81° East 512 589 35,000  Level Kansas City Center
Thu 04:52:55 AM 39.4019 -91.8819 81° East 514 592 35,000  Level Kansas City Center
Thu 04:53:54 AM 39.4286 -91.6653 81° East 516 594 35,000  Level Kansas City Center
Thu 04:54:57 AM 39.4511 -91.4781 81° East 517 595 35,000  Level Kansas City Center
Thu 04:55:56 AM 39.4733 -91.2917 81° East 520 598 35,000  Level Kansas City Center
Thu 04:56:58 AM 39.4942 -91.1072 82° East 520 598 35,000  Level Kansas City Center
Thu 04:57:56 AM 39.5156 -90.9228 81° East 519 597 35,000  Level Kansas City Center
Thu 04:58:59 AM 39.5367 -90.7386 81° East 515 593 35,000  Level Kansas City Center
Thu 05:00:00 AM 39.5564 -90.5539 82° East 517 595 35,000  Level Kansas City Center
Thu 05:00:58 AM 39.5769 -90.3656 82° East 522 601 35,000  Level Kansas City Center
Thu 05:01:59 AM 39.5972 -90.1775 82° East 524 603 35,000  Level Kansas City Center
Thu 05:03:02 AM 39.6169 -89.9900 82° East 524 603 35,000  Level Kansas City Center
Thu 05:04:01 AM 39.6356 -89.8042 83° East 523 602 35,000  Level Kansas City Center
Thu 05:05:03 AM 39.6539 -89.6192 83° East 517 595 35,000  Level Kansas City Center
Thu 05:06:02 AM 39.6731 -89.4361 82° East 514 592 35,000  Level Kansas City Center
Thu 05:07:04 AM 39.6919 -89.2433 83° East 513 590 35,000  Level Kansas City Center
Thu 05:08:04 AM 39.7100 -89.0597 83° East 514 592 35,000  Level Kansas City Center
Thu 05:09:05 AM 39.7275 -88.8733 83° East 519 597 35,000  Level Kansas City Center
Thu 05:10:06 AM 39.7444 -88.6894 83° East 517 595 35,000  Level Kansas City Center
Thu 05:11:05 AM 39.7631 -88.5047 82° East 517 595 35,000  Level Kansas City Center
Thu 05:12:07 AM 39.7806 -88.3208 83° East 516 594 35,000  Level Kansas City Center
Thu 05:13:07 AM 39.7967 -88.1422 83° East 515 593 35,000  Level Kansas City Center
Thu 05:14:07 AM 39.8114 -87.9597 84° East 510 587 35,000  Level Kansas City Center
Thu 05:15:09 AM 39.8275 -87.7744 83° East 510 587 35,000  Level Kansas City Center
Thu 05:16:21 AM 39.8442 -87.5517 84° East 513 590 35,000  Level Indianapolis Center
Thu 05:17:22 AM 39.8600 -87.3661 84° East 517 595 35,000  Level Indianapolis Center
Thu 05:18:23 AM 39.8747 -87.1808 84° East 516 594 35,000  Level Indianapolis Center
Thu 05:19:23 AM 39.8903 -86.9953 84° East 516 594 35,000  Level Indianapolis Center
Thu 05:20:24 AM 39.9083 -86.7714 84° East 517 595 35,000  Level Indianapolis Center
Thu 05:21:25 AM 39.9219 -86.5847 85° East 517 595 35,000  Level Indianapolis Center
Thu 05:22:25 AM 39.9358 -86.3967 84° East 517 595 35,000  Level Indianapolis Center
Thu 05:23:26 AM 39.9503 -86.2064 84° East 517 595 35,000  Level Indianapolis Center
Thu 05:24:27 AM 39.9603 -86.0553 85° East 518 596 35,000  Level Indianapolis Center
Thu 05:25:28 AM 39.9756 -85.8311 85° East 516 594 35,000  Level Indianapolis Center
Thu 05:26:28 AM 39.9878 -85.6469 85° East 513 590 35,000  Level Indianapolis Center
Thu 05:27:29 AM 40.0003 -85.4622 85° East 512 589 35,000  Level Indianapolis Center
Thu 05:28:30 AM 40.0125 -85.2781 85° East 511 588 35,000  Level Indianapolis Center
Thu 05:29:30 AM 40.0233 -85.0950 86° East 509 586 35,000  Level Indianapolis Center
Thu 05:30:31 AM 40.0350 -84.9128 85° East 507 583 35,000  Level Indianapolis Center
Thu 05:31:32 AM 40.0450 -84.7325 86° East 500 575 35,000  Level Indianapolis Center
Thu 05:32:32 AM 40.0553 -84.5528 86° East 500 575 35,000  Level Indianapolis Center
Thu 05:33:33 AM 40.0378 -84.3733 97° East 498 573 35,000  Level Indianapolis Center
Thu 05:34:33 AM 40.0111 -84.1936 101° East 506 582 35,000  Level Indianapolis Center
Thu 05:35:34 AM 39.9847 -84.0150 101° East 503 579 35,000  Level Indianapolis Center
Thu 05:36:35 AM 39.9594 -83.8442 101° East 504 580 35,000  Level Indianapolis Center
Thu 05:37:37 AM 39.9331 -83.6636 101° East 504 580 35,000  Level Indianapolis Center
Thu 05:38:36 AM 39.9069 -83.4844 101° East 504 580 35,000  Level Indianapolis Center
Thu 05:39:37 AM 39.8794 -83.3072 101° East 500 575 35,000  Level Indianapolis Center
Thu 05:40:37 AM 39.8472 -83.0939 101° East 500 575 35,000  Level Indianapolis Center
Thu 05:41:38 AM 39.8200 -82.9194 101° East 494 568 35,000  Level Indianapolis Center
Thu 05:42:38 AM 39.7919 -82.7422 102° East 497 572 35,000  Level Indianapolis Center
Thu 05:43:39 AM 39.7644 -82.5642 101° East 502 578 35,000  Level Indianapolis Center
Thu 05:44:40 AM 39.7358 -82.3878 102° East 499 574 35,000  Level Indianapolis Center
Thu 05:45:52 AM 39.7078 -82.2131 102° East 495 570 35,000  Level Indianapolis Center
Thu 05:46:53 AM 39.6731 -82.0042 102° East 492 566 35,000  Level Indianapolis Center
Thu 05:47:54 AM 39.6439 -81.8269 102° East 497 572 35,000  Level Indianapolis Center
Thu 05:48:54 AM 39.6150 -81.6519 102° East 495 570 35,000  Level Indianapolis Center
Thu 05:49:55 AM 39.5861 -81.4731 102° East 502 578 35,000  Level Indianapolis Center
Thu 05:50:55 AM 39.5556 -81.2983 103° East 497 572 35,000  Level Indianapolis Center
Thu 05:51:56 AM 39.5256 -81.1214 102° East 500 575 35,000  Level Indianapolis Center
Thu 05:52:57 AM 39.4953 -80.9467 103° East 497 572 35,000  Level Indianapolis Center
Thu 05:53:57 AM 39.4647 -80.7733 103° East 493 567 35,000  Level Indianapolis Center
Thu 05:54:58 AM 39.4342 -80.5981 103° East 496 571 35,000  Level Indianapolis Center
Thu 05:55:58 AM 39.4036 -80.4247 103° East 494 568 35,000 -198 Level Indianapolis Center
Thu 05:56:59 AM 39.3719 -80.2519 103° East 493 567 34,600 -694 Descending Indianapolis Center
Thu 05:57:59 AM 39.3406 -80.0814 103° East 489 563 33,600 -1,388 Descending Indianapolis Center
Thu 05:59:00 AM 39.3094 -79.9100 103° East 489 563 31,800 -1,339 Descending Indianapolis Center
Thu 06:00:00 AM 39.2856 -79.7333 100° East 494 568 30,900 -1,736 Descending Indianapolis Center
Thu 06:01:01 AM 39.2717 -79.5525 96° East 505 581 28,300 -2,000 Descending Indianapolis Center
Thu 06:02:18 AM 39.2578 -79.3283 95° East 493 567 26,300 -1,620 Descending Washington Center
Thu 06:03:18 AM 39.2417 -79.1719 98° East 476 548 24,600 -1,600 Descending Washington Center
Thu 06:04:18 AM 39.2272 -79.0186 97° East 443 510 23,100 -1,475 Descending Washington Center
Thu 06:05:20 AM 39.2147 -78.8706 96° East 425 489 21,600 -1,462 Descending Washington Center
Thu 06:06:17 AM 39.2000 -78.7253 97° East 414 476 20,200 -1,424 Descending Washington Center
Thu 06:07:18 AM 39.1847 -78.5828 98° East 408 470 18,800 -1,377 Descending Washington Center
Thu 06:08:19 AM 39.1717 -78.4403 97° East 403 464 17,400 -1,339 Descending Washington Center
Thu 06:09:19 AM 39.1475 -78.3056 103° East 392 451 16,100 -1,289 Descending Washington Center
Thu 06:10:20 AM 39.1169 -78.1786 107° East 379 436 14,800 -1,322 Descending Washington Center
Thu 06:11:17 AM 39.0861 -78.0544 108° East 373 429 13,500 -1,169 Descending Washington Center
Thu 06:12:18 AM 39.0572 -77.9467 109° East 367 422 12,500 -1,131 Descending Washington Center
Thu 06:13:19 AM 39.0281 -77.8308 108° East 347 399 11,200 -1,240 Descending Washington Center
Thu 06:14:19 AM 38.9969 -77.7150 109° East 316 364 10,000 -1,091 Descending Washington Center
Thu 06:15:20 AM 38.9733 -77.6208 108° East 308 354 9,000 -1,068 Descending Washington Center
Thu 06:16:17 AM 38.9481 -77.5161 107° East 308 354 7,900 -1,810 Descending Washington Center
Thu 06:17:26 AM 38.9500 -77.3833 89° East 293 337 5,200 -1,488 Descending Potomac TRACON
Thu 06:18:26 AM 38.9667 -77.2833 78° East 254 292 4,700 -800 Descending Potomac TRACON
Thu 06:19:26 AM 38.9833 -77.2167 72° East 219 252 3,600 -947 Descending Potomac TRACON
Thu 06:20:20 AM 38.9667 -77.1500 108° East 192 221 2,900 -944 Descending Potomac TRACON
Thu 06:21:14 AM 38.9333 -77.1167 142° Southeast 154 177 1,900 -944 Descending Potomac TRACON
Thu 06:22:08 AM 38.9167 -77.0833 123° Southeast 135 155 1,200 -737 Descending Potomac TRACON
Thu 06:23:08 AM 38.8833 -77.0500 142° Southeast 134 154 500 -700 Descending Potomac TRACON

Login

Don't have an account? Register now (free) for customized features, flight alerts, and more!